createdAt,value
2022-09-26T00:01:35.888Z,28.43
2022-09-26T00:04:09.165Z,30.80
2022-09-26T00:06:38.070Z,28.23
2022-09-26T00:09:06.162Z,26.83
2022-09-26T00:11:35.562Z,24.97
2022-09-26T00:14:06.684Z,25.70
2022-09-26T00:16:35.257Z,24.73
2022-09-26T00:19:05.076Z,23.40
2022-09-26T00:21:34.221Z,23.23
2022-09-26T00:24:03.409Z,20.50
2022-09-26T00:26:32.992Z,22.03
2022-09-26T00:29:04.489Z,21.70
2022-09-26T00:31:33.623Z,21.57
2022-09-26T00:34:02.099Z,22.63
2022-09-26T00:36:37.959Z,22.90
2022-09-26T00:39:09.102Z,24.60
2022-09-26T00:41:38.174Z,27.80
2022-09-26T00:44:38.456Z,24.60
2022-09-26T00:47:08.435Z,24.23
2022-09-26T00:49:39.216Z,24.17
2022-09-26T00:52:12.677Z,23.90
2022-09-26T00:54:45.767Z,21.70
2022-09-26T00:57:16.818Z,21.83
2022-09-26T00:59:48.388Z,19.77
2022-09-26T01:02:17.113Z,20.53
2022-09-26T01:04:46.642Z,18.83
2022-09-26T01:07:20.142Z,19.70
2022-09-26T01:09:49.249Z,20.27
2022-09-26T01:12:17.866Z,21.03
2022-09-26T01:14:47.523Z,21.87
2022-09-26T01:17:16.609Z,20.83
2022-09-26T01:19:55.318Z,21.63
2022-09-26T01:22:58.905Z,19.97
2022-09-26T01:25:45.318Z,20.80
2022-09-26T01:28:35.745Z,21.80
2022-09-26T01:31:13.711Z,19.63
2022-09-26T01:33:51.262Z,21.13
2022-09-26T01:36:48.969Z,20.90
2022-09-26T01:39:42.677Z,21.23
2022-09-26T01:42:19.154Z,22.37
2022-09-26T01:44:55.696Z,22.20
2022-09-26T01:47:28.810Z,22.40
2022-09-26T01:50:02.209Z,22.57
2022-09-26T01:52:36.986Z,23.97
2022-09-26T01:55:10.624Z,23.63
2022-09-26T01:57:42.374Z,24.83
2022-09-26T02:00:12.858Z,26.53
2022-09-26T02:02:44.934Z,30.53
2022-09-26T02:05:20.836Z,29.73
2022-09-26T02:07:56.419Z,37.23
2022-09-26T02:10:29.806Z,34.17
2022-09-26T02:13:03.983Z,29.83
2022-09-26T02:15:34.963Z,27.30
2022-09-26T02:18:10.831Z,27.70
2022-09-26T02:20:40.541Z,25.90
2022-09-26T02:23:08.899Z,24.60
2022-09-26T02:25:37.554Z,23.90
2022-09-26T02:28:06.248Z,23.13
2022-09-26T02:30:34.425Z,23.27
2022-09-26T02:33:04.313Z,22.80
2022-09-26T02:35:49.545Z,22.37
2022-09-26T02:38:18.082Z,21.23
2022-09-26T02:40:55.148Z,19.87
2022-09-26T02:43:42.862Z,20.03
2022-09-26T02:46:40.784Z,20.43
2022-09-26T02:49:25.356Z,19.70
2022-09-26T02:52:14.048Z,19.53
2022-09-26T02:54:49.694Z,18.80
2022-09-26T02:57:27.792Z,18.77
2022-09-26T02:59:59.735Z,18.17
2022-09-26T03:02:34.065Z,18.13
2022-09-26T03:05:12.041Z,19.47
2022-09-26T03:07:45.574Z,19.80
2022-09-26T03:10:15.338Z,19.67
2022-09-26T03:12:45.721Z,20.77
2022-09-26T03:15:15.393Z,24.37
2022-09-26T03:17:55.266Z,24.67
2022-09-26T03:20:26.082Z,28.53
2022-09-26T03:22:54.353Z,29.67
2022-09-26T03:25:25.722Z,28.90
2022-09-26T03:27:55.005Z,26.93
2022-09-26T03:30:24.486Z,29.43
2022-09-26T03:32:52.479Z,30.40
2022-09-26T03:35:20.833Z,32.13
2022-09-26T03:37:50.688Z,31.50
2022-09-26T03:40:18.828Z,34.67
2022-09-26T03:42:48.001Z,35.50
2022-09-26T03:45:16.163Z,30.70
2022-09-26T03:47:44.187Z,28.90
2022-09-26T03:50:12.647Z,29.10
2022-09-26T03:52:40.647Z,26.87
2022-09-26T03:55:11.317Z,26.07
2022-09-26T03:57:39.342Z,24.87
2022-09-26T04:00:08.255Z,24.53
2022-09-26T04:02:36.533Z,23.93
2022-09-26T04:05:05.409Z,23.43
2022-09-26T04:07:33.403Z,21.90
2022-09-26T04:10:01.442Z,22.37
2022-09-26T04:12:30.853Z,20.97
2022-09-26T04:14:58.876Z,21.03
2022-09-26T04:17:26.982Z,20.27
2022-09-26T04:19:54.974Z,20.97
2022-09-26T04:22:22.988Z,20.90
2022-09-26T04:24:51.585Z,19.87
2022-09-26T04:27:19.701Z,21.53
2022-09-26T04:29:49.082Z,21.20
2022-09-26T04:32:17.211Z,20.60
2022-09-26T04:34:45.223Z,20.67
2022-09-26T04:37:13.322Z,20.43
2022-09-26T04:39:42.014Z,19.97
2022-09-26T04:42:10.021Z,20.57
2022-09-26T04:44:37.997Z,20.97
2022-09-26T04:47:07.433Z,20.07
2022-09-26T04:49:35.420Z,19.73
2022-09-26T04:52:03.450Z,19.97
2022-09-26T04:54:31.477Z,20.33
2022-09-26T04:57:01.473Z,19.27
2022-09-26T04:59:29.498Z,18.80
2022-09-26T05:01:57.842Z,20.17
2022-09-26T05:04:27.917Z,19.47
2022-09-26T05:06:57.937Z,19.30
2022-09-26T05:09:26.165Z,19.63
2022-09-26T05:11:54.196Z,19.53
2022-09-26T05:14:25.454Z,19.40
2022-09-26T05:16:53.493Z,20.00
2022-09-26T05:19:21.504Z,19.93
2022-09-26T05:21:50.866Z,19.83
2022-09-26T05:24:36.293Z,19.57
2022-09-26T05:27:06.785Z,19.13
2022-09-26T05:29:34.912Z,21.73
2022-09-26T05:32:03.237Z,21.00
2022-09-26T05:34:31.229Z,22.17
2022-09-26T05:37:01.857Z,23.07
2022-09-26T05:39:47.528Z,25.23
2022-09-26T05:42:21.648Z,27.33
2022-09-26T05:44:49.699Z,27.13
2022-09-26T05:47:18.380Z,24.00
2022-09-26T05:49:46.387Z,24.10
2022-09-26T05:52:16.008Z,22.70
2022-09-26T05:54:43.986Z,23.10
2022-09-26T05:57:12.896Z,22.10
2022-09-26T05:59:40.903Z,21.30
2022-09-26T06:02:09.370Z,22.30
2022-09-26T06:04:37.762Z,20.70
2022-09-26T06:07:05.778Z,19.77
2022-09-26T06:09:35.249Z,20.00
2022-09-26T06:12:03.490Z,19.87
2022-09-26T06:14:32.088Z,20.03
2022-09-26T06:17:00.079Z,20.07
2022-09-26T06:19:28.063Z,19.63
2022-09-26T06:21:56.038Z,20.63
2022-09-26T06:24:24.037Z,19.00
2022-09-26T06:26:53.556Z,19.63
2022-09-26T06:29:21.547Z,20.07
2022-09-26T06:31:50.426Z,19.77
2022-09-26T06:34:18.518Z,19.47
2022-09-26T06:36:46.875Z,21.73
2022-09-26T06:39:15.036Z,21.60
2022-09-26T06:41:43.235Z,20.10
2022-09-26T06:44:12.723Z,20.77
2022-09-26T06:46:40.817Z,19.90
2022-09-26T06:49:08.904Z,20.47
2022-09-26T06:51:38.035Z,19.77
2022-09-26T06:54:06.044Z,22.20
2022-09-26T06:56:34.074Z,20.03
2022-09-26T06:59:02.422Z,19.80
2022-09-26T07:01:31.942Z,20.87
2022-09-26T07:04:00.023Z,21.20
2022-09-26T07:06:28.006Z,21.00
2022-09-26T07:09:02.656Z,21.53
2022-09-26T07:11:50.631Z,20.50
2022-09-26T07:14:21.594Z,21.17
2022-09-26T07:16:52.039Z,21.57
2022-09-26T07:19:21.279Z,21.30
2022-09-26T07:21:49.304Z,19.03
2022-09-26T07:24:17.718Z,23.73
2022-09-26T07:26:45.739Z,28.37
2022-09-26T07:29:13.957Z,29.47
2022-09-26T07:31:48.769Z,33.10
2022-09-26T07:34:18.848Z,31.30
2022-09-26T07:36:47.736Z,30.07
2022-09-26T07:39:16.092Z,30.90
2022-09-26T07:41:45.973Z,30.13
2022-09-26T07:47:22.187Z,26.83
2022-09-26T07:50:08.831Z,29.53
2022-09-26T07:52:37.245Z,27.73
2022-09-26T07:55:05.687Z,28.50
2022-09-26T07:57:35.465Z,27.97
2022-09-26T08:00:05.910Z,28.10
2022-09-26T08:02:34.104Z,29.40
2022-09-26T08:05:06.588Z,28.27
2022-09-26T08:07:35.390Z,28.93
2022-09-26T08:10:04.128Z,30.10
2022-09-26T08:12:36.468Z,29.30
2022-09-26T08:15:07.013Z,31.00
2022-09-26T08:17:35.410Z,32.33
2022-09-26T08:20:05.652Z,32.63
2022-09-26T08:22:33.947Z,34.57
2022-09-26T08:25:01.957Z,32.80
2022-09-26T08:27:33.514Z,34.47
2022-09-26T08:30:02.699Z,34.33
2022-09-26T08:32:32.333Z,34.83
2022-09-26T08:35:00.428Z,32.60
2022-09-26T08:37:31.035Z,31.70
2022-09-26T08:40:00.664Z,30.57
2022-09-26T08:42:39.460Z,30.13
2022-09-26T08:45:47.565Z,33.87
2022-09-26T08:48:33.079Z,29.57
2022-09-26T08:51:07.529Z,28.53
2022-09-26T08:53:44.056Z,31.17
2022-09-26T08:56:19.803Z,31.33
2022-09-26T08:58:52.225Z,30.40
2022-09-26T09:01:26.943Z,30.43
2022-09-26T09:04:02.124Z,29.00
2022-09-26T09:06:30.592Z,33.03
2022-09-26T09:09:00.154Z,31.47
2022-09-26T09:11:51.035Z,33.37
2022-09-26T09:14:36.609Z,29.43
2022-09-26T09:17:14.005Z,32.43
2022-09-26T09:19:52.665Z,31.13
2022-09-26T09:22:38.408Z,32.00
2022-09-26T09:25:16.688Z,31.37
2022-09-26T09:28:03.961Z,32.90
2022-09-26T09:30:41.972Z,31.30
2022-09-26T09:33:15.670Z,31.70
2022-09-26T09:35:47.277Z,30.13
2022-09-26T09:38:18.929Z,31.87
2022-09-26T09:40:55.481Z,30.33
2022-09-26T09:43:29.833Z,29.70
2022-09-26T09:46:04.172Z,29.13
2022-09-26T09:48:32.523Z,29.87
2022-09-26T09:51:13.141Z,30.20
2022-09-26T09:53:56.925Z,31.83
2022-09-26T09:56:33.991Z,31.57
2022-09-26T09:59:17.361Z,30.07
2022-09-26T10:01:51.122Z,28.67
2022-09-26T10:04:31.660Z,30.40
2022-09-26T10:07:01.797Z,29.87
2022-09-26T10:09:35.431Z,27.70
2022-09-26T10:12:16.668Z,29.83
2022-09-26T10:14:50.451Z,27.67
2022-09-26T10:17:22.980Z,27.80
2022-09-26T10:19:51.819Z,24.67
2022-09-26T10:22:26.241Z,27.40
2022-09-26T10:25:00.863Z,26.50
2022-09-26T10:27:37.689Z,23.37
2022-09-26T10:30:21.164Z,23.73
2022-09-26T10:32:56.084Z,21.50
2022-09-26T10:35:26.120Z,20.90
2022-09-26T10:38:03.874Z,21.50
2022-09-26T10:40:46.174Z,21.93
2022-09-26T10:43:28.643Z,20.37
2022-09-26T10:46:02.258Z,22.90
2022-09-26T10:48:47.951Z,22.60
2022-09-26T10:51:22.178Z,21.37
2022-09-26T10:53:53.119Z,19.70
2022-09-26T10:56:27.403Z,16.70
2022-09-26T10:58:59.628Z,16.80
2022-09-26T11:01:31.295Z,16.77
2022-09-26T11:04:12.549Z,15.63
2022-09-26T11:06:44.042Z,15.13
2022-09-26T11:09:13.992Z,15.93
2022-09-26T11:11:43.126Z,14.17
2022-09-26T11:14:28.291Z,15.77
2022-09-26T11:16:59.176Z,13.93
2022-09-26T11:19:36.032Z,14.27
2022-09-26T11:22:11.473Z,13.43
2022-09-26T11:24:48.095Z,11.67
2022-09-26T11:27:31.369Z,9.50
2022-09-26T11:30:09.105Z,9.80
2022-09-26T11:32:40.993Z,10.30
2022-09-26T11:35:15.769Z,9.20
2022-09-26T11:38:06.542Z,9.73
2022-09-26T11:41:00.125Z,9.77
2022-09-26T11:43:46.409Z,11.37
2022-09-26T11:46:33.048Z,11.00
2022-09-26T11:49:19.583Z,9.63
2022-09-26T11:52:02.680Z,9.93
2022-09-26T11:54:51.309Z,10.53
2022-09-26T11:57:35.550Z,10.17
2022-09-26T12:00:09.155Z,9.87
2022-09-26T12:02:54.318Z,8.77
2022-09-26T12:05:30.274Z,8.30
2022-09-26T12:08:11.298Z,7.97
2022-09-26T12:10:50.918Z,7.43
2022-09-26T12:13:32.643Z,6.00
2022-09-26T12:16:12.223Z,5.60
2022-09-26T12:18:53.826Z,5.37
2022-09-26T12:21:31.302Z,5.97
2022-09-26T12:24:06.978Z,6.40
2022-09-26T12:26:44.198Z,6.07
2022-09-26T12:29:25.740Z,5.80
2022-09-26T12:32:10.089Z,5.60
2022-09-26T12:35:02.151Z,5.17
2022-09-26T12:38:05.118Z,5.50
2022-09-26T12:40:37.312Z,5.50
2022-09-26T12:43:31.589Z,5.77
2022-09-26T12:46:18.913Z,6.00
2022-09-26T12:49:06.765Z,5.60
2022-09-26T12:51:43.970Z,5.57
2022-09-26T12:54:26.743Z,5.80
2022-09-26T12:57:04.337Z,5.30
2022-09-26T12:59:55.839Z,5.80
2022-09-26T13:02:51.348Z,5.27
2022-09-26T13:05:46.900Z,5.90
2022-09-26T13:08:24.883Z,5.50
2022-09-26T13:11:04.663Z,4.30
2022-09-26T13:14:06.080Z,4.13
2022-09-26T13:16:42.751Z,3.87
2022-09-26T13:19:23.596Z,3.80
2022-09-26T13:21:59.989Z,4.00
2022-09-26T13:24:35.708Z,4.70
2022-09-26T13:27:12.575Z,5.20
2022-09-26T13:29:44.554Z,5.47
2022-09-26T13:32:20.407Z,5.53
2022-09-26T13:34:54.318Z,5.50
2022-09-26T13:37:37.611Z,5.90
2022-09-26T13:40:26.726Z,5.80
2022-09-26T13:43:05.946Z,6.37
2022-09-26T13:45:49.024Z,6.37
2022-09-26T13:48:24.199Z,5.90
2022-09-26T13:50:55.860Z,6.60
2022-09-26T13:53:28.943Z,6.73
2022-09-26T13:56:42.386Z,6.47
2022-09-26T13:59:26.150Z,7.43
2022-09-26T14:02:22.211Z,6.33
2022-09-26T14:04:51.150Z,6.50
2022-09-26T14:07:38.896Z,6.47
2022-09-26T14:10:36.193Z,6.63
2022-09-26T14:13:19.033Z,7.20
2022-09-26T14:16:05.479Z,6.80
2022-09-26T14:18:59.424Z,7.03
2022-09-26T14:21:42.072Z,7.03
2022-09-26T14:24:30.647Z,7.13
2022-09-26T14:27:05.013Z,6.50
2022-09-26T14:29:47.533Z,6.90
2022-09-26T14:32:20.705Z,6.40
2022-09-26T14:34:54.967Z,7.07
2022-09-26T14:37:41.849Z,7.87
2022-09-26T14:40:22.996Z,7.07
2022-09-26T14:42:53.963Z,6.90
2022-09-26T14:45:26.656Z,7.50
2022-09-26T14:48:04.567Z,6.60
2022-09-26T14:50:35.512Z,6.80
2022-09-26T14:53:14.832Z,7.03
2022-09-26T14:55:59.396Z,6.80
2022-09-26T14:58:46.505Z,6.57
2022-09-26T15:01:20.567Z,7.17
2022-09-26T15:03:56.456Z,7.00
2022-09-26T15:06:27.209Z,6.20
2022-09-26T15:08:56.175Z,6.57
2022-09-26T15:11:34.750Z,6.90
2022-09-26T15:14:14.871Z,6.93
2022-09-26T15:16:48.320Z,7.10
2022-09-26T15:19:20.137Z,6.80
2022-09-26T15:21:55.646Z,6.70
2022-09-26T15:24:27.462Z,6.80
2022-09-26T15:26:58.302Z,6.53
2022-09-26T15:29:26.693Z,6.70
2022-09-26T15:31:57.662Z,7.00
2022-09-26T15:34:33.669Z,6.67
2022-09-26T15:37:09.287Z,6.93
2022-09-26T15:39:41.793Z,6.47
2022-09-26T15:42:42.448Z,6.70
2022-09-26T15:45:30.178Z,6.67
2022-09-26T15:48:01.881Z,6.40
2022-09-26T15:50:39.226Z,6.87
2022-09-26T15:53:12.861Z,6.50
2022-09-26T15:55:49.508Z,7.33
2022-09-26T15:58:21.262Z,6.70
2022-09-26T16:00:51.999Z,6.67
2022-09-26T16:03:39.857Z,7.23
2022-09-26T16:06:16.613Z,6.40
2022-09-26T16:08:45.470Z,6.93
2022-09-26T16:11:13.682Z,6.40
2022-09-26T16:13:46.388Z,6.50
2022-09-26T16:16:18.671Z,6.73
2022-09-26T16:18:54.250Z,6.50
2022-09-26T16:21:25.689Z,6.47
2022-09-26T16:23:55.771Z,6.43
2022-09-26T16:26:30.268Z,6.93
2022-09-26T16:28:59.878Z,6.80
2022-09-26T16:31:39.682Z,7.00
2022-09-26T16:34:22.210Z,7.53
2022-09-26T16:36:51.398Z,6.83
2022-09-26T16:39:43.904Z,7.23
2022-09-26T16:42:17.971Z,8.23
2022-09-26T16:44:54.782Z,7.50
2022-09-26T16:47:34.393Z,7.43
2022-09-26T16:50:19.562Z,7.70
2022-09-26T16:52:47.563Z,7.73
2022-09-26T16:55:15.749Z,7.00
2022-09-26T16:57:52.377Z,7.47
2022-09-26T17:00:40.112Z,7.87
2022-09-26T17:03:22.065Z,7.97
2022-09-26T17:05:53.027Z,7.40
2022-09-26T17:08:22.353Z,7.50
2022-09-26T17:10:52.822Z,8.00
2022-09-26T17:13:23.195Z,8.00
2022-09-26T17:15:54.639Z,7.53
2022-09-26T17:18:28.906Z,7.57
2022-09-26T17:20:59.946Z,7.80
2022-09-26T17:23:39.976Z,7.63
2022-09-26T17:26:09.057Z,7.53
2022-09-26T17:28:40.063Z,7.20
2022-09-26T17:31:15.022Z,7.73
2022-09-26T17:33:43.458Z,7.70
2022-09-26T17:36:20.876Z,12.17
2022-09-26T17:38:48.893Z,10.87
2022-09-26T17:41:16.998Z,9.73
2022-09-26T17:43:47.416Z,9.80
2022-09-26T17:46:16.784Z,9.03
2022-09-26T17:48:45.713Z,8.70
2022-09-26T17:51:16.107Z,9.43
2022-09-26T17:53:51.100Z,9.37
2022-09-26T17:56:19.988Z,9.47
2022-09-26T17:58:49.412Z,11.23
2022-09-26T18:01:23.442Z,11.00
2022-09-26T18:03:54.609Z,11.33
2022-09-26T18:06:27.789Z,12.00
2022-09-26T18:08:59.781Z,11.00
2022-09-26T18:11:31.706Z,12.03
2022-09-26T18:14:00.028Z,15.00
2022-09-26T18:16:30.141Z,15.40
2022-09-26T18:18:59.499Z,15.20
2022-09-26T18:21:30.482Z,16.03
2022-09-26T18:24:02.197Z,16.63
2022-09-26T18:26:32.740Z,17.87
2022-09-26T18:29:08.180Z,17.63
2022-09-26T18:31:41.059Z,15.23
2022-09-26T18:34:16.358Z,17.73
2022-09-26T18:36:47.242Z,17.20
2022-09-26T18:39:15.410Z,17.10
2022-09-26T18:41:45.503Z,16.27
2022-09-26T18:44:18.471Z,18.73
2022-09-26T18:46:48.373Z,20.80
2022-09-26T18:49:17.305Z,18.90
2022-09-26T18:51:54.704Z,19.27
2022-09-26T18:54:27.302Z,19.40
2022-09-26T18:57:12.652Z,18.40
2022-09-26T18:59:40.711Z,18.20
2022-09-26T19:02:20.436Z,17.03
2022-09-26T19:04:50.426Z,16.83
2022-09-26T19:07:21.604Z,16.63
2022-09-26T19:09:50.655Z,15.13
2022-09-26T19:12:18.975Z,15.87
2022-09-26T19:14:46.997Z,15.13
2022-09-26T19:17:15.051Z,14.77
2022-09-26T19:19:43.087Z,13.43
2022-09-26T19:22:15.749Z,14.10
2022-09-26T19:24:47.738Z,14.50
2022-09-26T19:27:19.346Z,14.13
2022-09-26T19:29:53.281Z,13.27
2022-09-26T19:32:24.364Z,13.33
2022-09-26T19:34:56.175Z,13.80
2022-09-26T19:37:26.942Z,14.13
2022-09-26T19:39:59.740Z,13.43
2022-09-26T19:42:27.871Z,13.13
2022-09-26T19:44:56.398Z,13.67
2022-09-26T19:47:26.778Z,13.27
2022-09-26T19:49:55.577Z,13.33
2022-09-26T19:52:24.468Z,14.37
2022-09-26T19:54:53.511Z,14.43
2022-09-26T19:57:24.342Z,15.17
2022-09-26T19:59:52.668Z,16.00
2022-09-26T20:02:24.088Z,16.27
2022-09-26T20:04:52.495Z,16.00
2022-09-26T20:07:21.284Z,15.27
2022-09-26T20:09:49.686Z,16.33
2022-09-26T20:12:17.708Z,15.73
2022-09-26T20:14:47.113Z,15.37
2022-09-26T20:17:23.746Z,14.10
2022-09-26T20:19:56.403Z,15.93
2022-09-26T20:22:26.687Z,17.30
2022-09-26T20:24:55.985Z,18.87
2022-09-26T20:27:27.778Z,20.20
2022-09-26T20:30:15.462Z,20.97
2022-09-26T20:32:43.745Z,20.20
2022-09-26T20:35:15.208Z,20.50
2022-09-26T20:37:43.640Z,20.57
2022-09-26T20:40:18.110Z,23.07
2022-09-26T20:42:50.018Z,20.83
2022-09-26T20:45:23.695Z,21.53
2022-09-26T20:47:51.837Z,21.43
2022-09-26T20:50:21.894Z,20.90
2022-09-26T20:52:49.861Z,22.10
2022-09-26T20:55:18.887Z,20.60
2022-09-26T20:57:47.933Z,19.50
2022-09-26T21:00:16.805Z,16.47
2022-09-26T21:02:47.845Z,15.73
2022-09-26T21:05:17.968Z,16.50
2022-09-26T21:07:46.263Z,16.20
2022-09-26T21:10:25.813Z,16.53
2022-09-26T21:12:54.260Z,16.40
2022-09-26T21:15:23.823Z,16.97
2022-09-26T21:17:55.113Z,17.10
2022-09-26T21:20:26.089Z,17.87
2022-09-26T21:22:54.943Z,17.50
2022-09-26T21:25:24.594Z,17.53
2022-09-26T21:27:58.365Z,17.20
2022-09-26T21:30:26.758Z,18.50
2022-09-26T21:32:58.076Z,17.30
2022-09-26T21:35:30.467Z,17.27
2022-09-26T21:37:59.839Z,16.53
2022-09-26T21:40:32.514Z,16.97
2022-09-26T21:43:05.704Z,16.93
2022-09-26T21:45:34.603Z,16.57
2022-09-26T21:48:04.130Z,16.73
2022-09-26T21:50:32.261Z,15.93
2022-09-26T21:53:04.334Z,16.60
2022-09-26T21:55:36.455Z,16.73
2022-09-26T21:58:09.187Z,16.77
2022-09-26T22:00:37.227Z,17.13
2022-09-26T22:03:06.993Z,17.33
2022-09-26T22:05:35.100Z,16.33
2022-09-26T22:08:03.396Z,15.63
2022-09-26T22:10:31.418Z,15.80
2022-09-26T22:12:59.662Z,14.93
2022-09-26T22:15:27.669Z,15.40
2022-09-26T22:17:55.824Z,15.20
2022-09-26T22:20:25.241Z,15.47
2022-09-26T22:22:53.249Z,15.37
2022-09-26T22:25:21.322Z,15.73
2022-09-26T22:27:49.346Z,15.17
2022-09-26T22:30:17.575Z,14.63
2022-09-26T22:32:45.546Z,14.93
2022-09-26T22:35:13.574Z,14.53
2022-09-26T22:37:45.829Z,15.27
2022-09-26T22:40:13.835Z,15.90
2022-09-26T22:42:41.890Z,17.60
2022-09-26T22:45:11.046Z,20.60
2022-09-26T22:47:39.347Z,18.23
2022-09-26T22:50:07.790Z,18.07
2022-09-26T22:52:35.799Z,19.57
2022-09-26T22:55:05.896Z,20.07
2022-09-26T22:57:33.895Z,19.63
2022-09-26T23:00:02.709Z,19.10
2022-09-26T23:02:30.810Z,17.93
2022-09-26T23:04:58.820Z,16.60
2022-09-26T23:07:26.941Z,15.67
2022-09-26T23:09:54.936Z,16.00
2022-09-26T23:12:24.341Z,15.07
2022-09-26T23:14:52.320Z,14.53
2022-09-26T23:17:20.306Z,15.67
2022-09-26T23:19:48.286Z,14.80
2022-09-26T23:22:16.283Z,15.93
2022-09-26T23:24:44.249Z,15.03
2022-09-26T23:27:12.265Z,15.40
2022-09-26T23:29:41.672Z,15.97
2022-09-26T23:32:09.703Z,16.63
2022-09-26T23:34:37.692Z,16.20
2022-09-26T23:37:05.709Z,15.63
2022-09-26T23:39:33.661Z,15.77
2022-09-26T23:42:02.634Z,15.77
2022-09-26T23:44:32.248Z,16.60
2022-09-26T23:47:02.614Z,17.57
2022-09-26T23:49:30.782Z,15.50
2022-09-26T23:51:58.776Z,15.83
2022-09-26T23:54:26.757Z,16.43
2022-09-26T23:56:54.775Z,16.20
2022-09-26T23:59:22.981Z,16.23
